Time;durP1;ratioP1;P1;durP2;ratioP2;P2;SDS_P1;SDS_P2;PMS_P1;PMS_P2;Temp;Humidity;BMP_temperature;BMP_pressure;BME280_temperature;BME280_humidity;BME280_pressure;Samples;Min_cycle;Max_cycle;Signal;HPM_P1;HPM_P2
2021/08/27 00:01:36;;;;;;;31.05;19.13;;;;;;;16.28;84.30;99352.22;4734922;30;20052;-63
2021/08/27 00:04:02;;;;;;;23.75;18.67;;;;;;;16.25;84.38;99350.09;4752323;30;20079;-64
2021/08/27 00:06:29;;;;;;;28.73;18.65;;;;;;;16.25;84.47;99358.91;4738525;30;20388;-62
2021/08/27 00:08:55;;;;;;;22.88;16.88;;;;;;;16.24;84.33;99360.00;4754402;30;20155;-63
2021/08/27 00:11:21;;;;;;;24.63;17.00;;;;;;;16.22;84.42;99364.00;4752970;30;20048;-62
2021/08/27 00:13:47;;;;;;;25.13;16.83;;;;;;;16.19;84.40;99372.59;4754418;30;20066;-63
2021/08/27 00:16:13;;;;;;;21.35;16.58;;;;;;;16.14;84.27;99373.41;4754082;30;20056;-61
2021/08/27 00:18:39;;;;;;;24.42;16.63;;;;;;;16.12;84.71;99360.31;4754120;30;20065;-64
2021/08/27 00:21:05;;;;;;;22.60;17.10;;;;;;;16.12;84.61;99372.91;4754251;30;20063;-63
2021/08/27 00:23:31;;;;;;;22.48;17.25;;;;;;;16.12;84.59;99376.34;4738042;30;20048;-62
2021/08/27 00:25:57;;;;;;;21.95;15.45;;;;;;;16.06;84.53;99365.94;4737825;30;20079;-62
2021/08/27 00:28:23;;;;;;;24.60;16.95;;;;;;;16.03;84.91;99366.50;4752725;30;20087;-62
2021/08/27 00:30:49;;;;;;;22.33;16.35;;;;;;;15.98;85.35;99366.53;4753993;30;20082;-63
2021/08/27 00:33:15;;;;;;;22.95;17.13;;;;;;;15.95;85.62;99369.75;4752465;30;20080;-62
2021/08/27 00:35:41;;;;;;;25.13;16.52;;;;;;;15.89;85.66;99374.31;4738351;30;20062;-62
2021/08/27 00:38:06;;;;;;;22.88;16.42;;;;;;;15.87;85.62;99358.53;4752790;30;20529;-62
2021/08/27 00:40:32;;;;;;;22.52;16.25;;;;;;;15.90;85.39;99360.66;4737988;30;20101;-63
2021/08/27 00:42:58;;;;;;;24.30;17.00;;;;;;;15.90;85.58;99359.88;4754370;30;20058;-61
2021/08/27 00:45:24;;;;;;;21.63;16.77;;;;;;;15.88;85.54;99364.66;4753735;30;20059;-62
2021/08/27 00:47:50;;;;;;;24.00;16.17;;;;;;;15.85;85.86;99359.88;4752371;30;20084;-62
2021/08/27 00:50:17;;;;;;;23.80;16.95;;;;;;;15.87;86.06;99371.09;4738055;30;20098;-62
2021/08/27 00:52:42;;;;;;;21.65;16.77;;;;;;;15.85;86.05;99359.88;4753851;30;20048;-62
2021/08/27 00:55:08;;;;;;;27.52;17.73;;;;;;;15.85;86.05;99365.22;4737738;30;20062;-64
2021/08/27 00:57:35;;;;;;;31.55;17.90;;;;;;;15.85;85.88;99367.88;4753881;30;20044;-63
2021/08/27 01:00:02;;;;;;;22.95;17.52;;;;;;;15.82;86.04;99373.78;4753443;30;20542;-62
2021/08/27 01:02:29;;;;;;;23.20;17.90;;;;;;;15.83;86.23;99370.84;4737865;30;20105;-62
2021/08/27 01:04:57;;;;;;;22.25;18.13;;;;;;;15.82;86.27;99365.75;4752261;30;20056;-64
2021/08/27 01:07:49;;;;;;;24.02;17.95;;;;;;;15.80;86.24;99373.28;4753268;30;20413;-62
2021/08/27 01:10:21;;;;;;;27.85;18.52;;;;;;;15.80;86.31;99365.25;4743985;30;20067;-62
2021/08/27 01:13:02;;;;;;;26.27;18.95;;;;;;;15.77;86.38;99363.91;4752217;30;20461;-62
2021/08/27 01:15:39;;;;;;;27.00;18.38;;;;;;;15.77;86.49;99369.28;4753144;30;20431;-62
2021/08/27 01:18:14;;;;;;;25.10;17.80;;;;;;;15.69;86.73;99369.81;4753562;30;20076;-61
2021/08/27 01:21:01;;;;;;;25.52;17.60;;;;;;;15.64;86.75;99362.56;4737319;30;20052;-62
2021/08/27 01:23:32;;;;;;;26.27;18.38;;;;;;;15.61;87.01;99367.66;4753343;30;20060;-62
2021/08/27 01:25:59;;;;;;;29.05;18.88;;;;;;;15.56;87.40;99368.50;4753285;30;20052;-62
2021/08/27 01:28:26;;;;;;;26.13;18.17;;;;;;;15.54;87.26;99370.63;4737153;30;20528;-62
2021/08/27 01:30:54;;;;;;;25.95;18.35;;;;;;;15.54;87.30;99365.28;4752993;30;20103;-63
2021/08/27 01:33:22;;;;;;;26.17;18.45;;;;;;;15.53;87.40;99360.19;4753261;30;20048;-62
2021/08/27 01:35:53;;;;;;;25.98;17.60;;;;;;;15.50;87.41;99360.72;4751769;30;20155;-62
2021/08/27 01:38:21;;;;;;;25.08;17.58;;;;;;;15.51;87.21;99368.50;4737237;30;20129;-62
2021/08/27 01:40:49;;;;;;;29.48;17.88;;;;;;;15.49;87.27;99369.81;4751964;30;20051;-63
2021/08/27 01:43:16;;;;;;;23.95;17.75;;;;;;;15.47;87.30;99370.13;4751730;30;20491;-62
2021/08/27 01:45:42;;;;;;;23.75;17.45;;;;;;;15.47;87.27;99366.63;4736790;30;20121;-63
2021/08/27 01:48:08;;;;;;;27.92;17.92;;;;;;;15.42;87.46;99362.91;4736723;30;20519;-64
2021/08/27 01:50:35;;;;;;;25.00;17.90;;;;;;;15.47;87.08;99372.78;4737099;30;20048;-63
2021/08/27 01:53:01;;;;;;;28.48;18.33;;;;;;;15.45;87.14;99380.25;4736863;30;20052;-62
2021/08/27 01:55:28;;;;;;;28.77;16.73;;;;;;;15.45;87.02;99378.38;4751402;30;20052;-63
2021/08/27 01:57:54;;;;;;;26.63;17.95;;;;;;;15.46;87.42;99379.19;4751362;30;20083;-62
2021/08/27 02:00:21;;;;;;;25.58;17.98;;;;;;;15.45;87.53;99370.38;4736872;30;20090;-63
2021/08/27 02:02:48;;;;;;;26.65;17.88;;;;;;;15.44;87.18;99376.78;4751242;30;20097;-61
2021/08/27 02:05:14;;;;;;;28.95;18.15;;;;;;;15.44;87.43;99367.94;4736428;30;20052;-61
2021/08/27 02:07:40;;;;;;;28.80;18.88;;;;;;;15.44;87.36;99371.44;4721724;30;20150;-62
2021/08/27 02:10:06;;;;;;;27.15;18.50;;;;;;;15.43;87.32;99374.38;4751018;30;20139;-61
2021/08/27 02:12:32;;;;;;;27.75;19.40;;;;;;;15.44;87.41;99381.31;4736513;30;20063;-62
2021/08/27 02:14:59;;;;;;;25.77;18.63;;;;;;;15.41;87.85;99374.66;4752265;30;20075;-63
2021/08/27 02:17:25;;;;;;;26.30;19.17;;;;;;;15.41;87.59;99387.19;4736459;30;20044;-62
2021/08/27 02:19:52;;;;;;;26.40;19.00;;;;;;;15.40;87.88;99386.41;4752217;30;20436;-63
2021/08/27 02:22:19;;;;;;;28.83;18.75;;;;;;;15.38;88.01;99385.06;4736124;30;20139;-63
2021/08/27 02:25:10;;;;;;;37.65;20.70;;;;;;;15.36;88.44;99388.00;4736415;30;20059;-64
2021/08/27 02:27:38;;;;;;;31.45;20.88;;;;;;;15.33;88.32;99385.88;4735561;30;20079;-63
2021/08/27 02:30:05;;;;;;;30.67;20.67;;;;;;;15.31;88.42;99385.34;4750806;30;20478;-63
2021/08/27 02:32:30;;;;;;;30.60;20.25;;;;;;;15.29;88.45;99381.34;4750710;30;20052;-63
2021/08/27 02:35:00;;;;;;;35.20;21.00;;;;;;;15.31;88.12;99389.88;4751873;30;20614;-62
2021/08/27 02:37:29;;;;;;;30.85;19.98;;;;;;;15.27;88.03;99381.63;4750800;30;20048;-61
2021/08/27 02:39:57;;;;;;;26.90;18.77;;;;;;;15.28;87.98;99388.53;4721385;30;20048;-62
2021/08/27 02:42:27;;;;;;;33.13;20.20;;;;;;;15.27;87.86;99378.94;4750608;30;20055;-61
2021/08/27 02:44:54;;;;;;;29.92;20.15;;;;;;;15.27;87.85;99380.81;4750569;30;20109;-62
2021/08/27 02:47:19;;;;;;;28.70;19.38;;;;;;;15.26;87.76;99376.53;4751855;30;20401;-61
2021/08/27 02:49:45;;;;;;;28.52;20.40;;;;;;;15.27;87.64;99378.16;4751857;30;20063;-63
2021/08/27 02:52:16;;;;;;;34.28;21.65;;;;;;;15.27;87.66;99378.94;4750305;30;20060;-63
2021/08/27 02:54:52;;;;;;;30.77;21.23;;;;;;;15.28;87.87;99379.75;4736077;30;20106;-63
2021/08/27 02:57:19;;;;;;;34.75;21.85;;;;;;;15.27;87.65;99378.16;4751700;30;20052;-62
2021/08/27 02:59:46;;;;;;;31.77;22.45;;;;;;;15.28;87.71;99387.75;4735560;30;20426;-63
2021/08/27 03:02:16;;;;;;;34.60;22.20;;;;;;;15.28;87.67;99390.41;4750222;30;20048;-62
2021/08/27 03:04:47;;;;;;;34.42;22.65;;;;;;;15.30;87.43;99388.28;4750541;30;20056;-63
2021/08/27 03:07:15;;;;;;;32.88;23.08;;;;;;;15.28;87.30;99391.22;4751365;30;20063;-63
2021/08/27 03:10:03;;;;;;;37.22;23.38;;;;;;;15.32;87.11;99394.16;4735550;30;20062;-63
2021/08/27 03:13:00;;;;;;;37.63;24.58;;;;;;;15.32;86.89;99402.94;4751306;30;20093;-64
2021/08/27 03:15:36;;;;;;;36.22;24.38;;;;;;;15.37;87.00;99407.50;4729175;30;20506;-63
2021/08/27 03:18:09;;;;;;;42.55;25.33;;;;;;;15.39;86.62;99408.84;4751488;30;20055;-63
2021/08/27 03:21:00;;;;;;;38.95;25.48;;;;;;;15.42;86.52;99412.84;4720749;30;20054;-62
2021/08/27 03:23:28;;;;;;;41.60;28.95;;;;;;;15.39;86.94;99422.19;4734868;30;20096;-63
2021/08/27 03:25:56;;;;;;;45.55;31.00;;;;;;;15.43;86.80;99423.25;4749944;30;20105;-63
2021/08/27 03:28:25;;;;;;;44.33;29.95;;;;;;;15.37;86.72;99410.19;4749783;30;20139;-62
2021/08/27 03:30:53;;;;;;;51.33;31.87;;;;;;;15.40;86.86;99420.31;4751302;30;20052;-62
2021/08/27 03:33:20;;;;;;;52.28;33.05;;;;;;;15.40;86.95;99421.13;4751242;30;20048;-62
2021/08/27 03:35:51;;;;;;;48.05;33.03;;;;;;;15.41;87.06;99425.41;4750983;30;20106;-62
2021/08/27 03:38:18;;;;;;;53.25;33.85;;;;;;;15.43;87.17;99428.59;4734941;30;20052;-61
2021/08/27 03:40:45;;;;;;;50.63;33.55;;;;;;;15.42;87.07;99426.22;4750940;30;20048;-62
2021/08/27 03:43:13;;;;;;;52.72;34.88;;;;;;;15.41;87.37;99421.91;4751112;30;20113;-62
2021/08/27 03:45:40;;;;;;;49.05;34.05;;;;;;;15.42;87.35;99423.53;4734866;30;20052;-61
2021/08/27 03:48:06;;;;;;;52.15;34.92;;;;;;;15.42;87.31;99427.00;4735124;30;20052;-61
2021/08/27 03:50:32;;;;;;;54.38;36.80;;;;;;;15.41;87.37;99428.09;4751035;30;20052;-62
2021/08/27 03:52:58;;;;;;;53.50;35.72;;;;;;;15.39;87.41;99424.06;4750599;30;20048;-62
2021/08/27 03:55:25;;;;;;;56.75;37.50;;;;;;;15.38;87.46;99422.44;4734783;30;20083;-63
2021/08/27 03:57:52;;;;;;;55.25;36.95;;;;;;;15.38;87.46;99428.63;4734619;30;20056;-62
2021/08/27 04:00:20;;;;;;;55.22;36.53;;;;;;;15.35;87.60;99415.81;4750414;30;20055;-62
2021/08/27 04:02:50;;;;;;;60.00;38.80;;;;;;;15.36;87.63;99420.06;4750254;30;20056;-64
2021/08/27 04:05:18;;;;;;;59.45;39.50;;;;;;;15.39;87.52;99429.41;4750246;30;20452;-61
2021/08/27 04:07:45;;;;;;;57.15;39.65;;;;;;;15.45;87.67;99428.34;4750141;30;20143;-62
2021/08/27 04:10:14;;;;;;;63.42;39.65;;;;;;;15.47;87.12;99436.91;4750498;30;20087;-63
2021/08/27 04:12:40;;;;;;;62.78;41.00;;;;;;;15.54;87.01;99436.63;4750606;30;20052;-62
2021/08/27 04:15:11;;;;;;;60.35;39.55;;;;;;;15.56;86.84;99448.63;4750276;30;20139;-64
2021/08/27 04:17:37;;;;;;;57.15;40.50;;;;;;;15.54;86.53;99447.31;4734690;30;20461;-62
2021/08/27 04:20:05;;;;;;;63.35;41.80;;;;;;;15.51;86.73;99442.50;4720252;30;20063;-61
2021/08/27 04:22:31;;;;;;;64.47;42.03;;;;;;;15.56;86.87;99450.47;4749088;30;20519;-62
2021/08/27 04:24:57;;;;;;;64.03;42.17;;;;;;;15.59;86.87;99448.09;4750340;30;20516;-63
2021/08/27 04:27:23;;;;;;;64.65;43.53;;;;;;;15.58;86.47;99453.69;4750650;30;20139;-62
2021/08/27 04:29:50;;;;;;;61.42;43.42;;;;;;;15.61;86.71;99451.28;4750333;30;20044;-62
2021/08/27 04:32:17;;;;;;;64.45;40.53;;;;;;;15.61;86.36;99451.28;4750419;30;20048;-63
2021/08/27 04:34:42;;;;;;;63.92;43.03;;;;;;;15.60;86.40;99449.69;4750026;30;20105;-64
2021/08/27 04:37:08;;;;;;;57.42;38.80;;;;;;;15.59;86.27;99448.09;4748921;30;20158;-63
2021/08/27 04:39:34;;;;;;;58.80;39.72;;;;;;;15.60;86.16;99459.59;4749233;30;20052;-63
2021/08/27 04:42:01;;;;;;;59.35;39.95;;;;;;;15.58;86.04;99451.03;4734429;30;20588;-62
2021/08/27 04:44:27;;;;;;;64.72;41.45;;;;;;;15.55;86.45;99452.38;4750106;30;20141;-62
2021/08/27 04:46:53;;;;;;;61.72;40.95;;;;;;;15.53;86.42;99451.03;4719520;30;20052;-63
2021/08/27 04:49:19;;;;;;;63.58;40.78;;;;;;;15.56;86.15;99456.66;4750559;30;20044;-64
2021/08/27 04:51:45;;;;;;;61.08;40.55;;;;;;;15.48;85.86;99446.50;4753641;30;20048;-62
2021/08/27 04:54:11;;;;;;;66.43;42.65;;;;;;;15.54;85.81;99442.75;4753545;30;20083;-63
2021/08/27 04:56:36;;;;;;;65.40;41.25;;;;;;;15.55;85.85;99447.03;4737235;30;20110;-61
2021/08/27 04:59:02;;;;;;;63.13;42.22;;;;;;;15.54;85.62;99449.97;4753241;30;20044;-62
2021/08/27 05:01:28;;;;;;;60.90;40.33;;;;;;;15.55;85.46;99454.25;4752865;30;20121;-62
2021/08/27 05:03:54;;;;;;;63.97;40.28;;;;;;;15.59;85.36;99453.44;4753238;30;20049;-63
2021/08/27 05:06:19;;;;;;;66.32;40.90;;;;;;;15.63;85.05;99454.50;4752823;30;20082;-62
2021/08/27 05:08:45;;;;;;;66.80;43.30;;;;;;;15.68;84.91;99464.44;4751737;30;20147;-63
2021/08/27 05:11:11;;;;;;;64.65;41.60;;;;;;;15.72;84.67;99462.81;4752720;30;20082;-63
2021/08/27 05:13:37;;;;;;;63.13;42.25;;;;;;;15.80;84.40;99467.63;4752732;30;20071;-63
2021/08/27 05:16:03;;;;;;;70.05;44.08;;;;;;;15.87;84.09;99473.47;4752715;30;20044;-61
2021/08/27 05:18:29;;;;;;;70.32;43.63;;;;;;;15.94;83.31;99459.81;4736955;30;20581;-63
2021/08/27 05:20:58;;;;;;;67.60;43.17;;;;;;;16.04;83.22;99469.72;4752856;30;20052;-62
2021/08/27 05:23:24;;;;;;;69.60;44.20;;;;;;;16.11;82.58;99465.66;4737163;30;20060;-61
2021/08/27 05:25:50;;;;;;;69.43;43.45;;;;;;;16.26;82.17;99477.38;4723599;30;20143;-62
2021/08/27 05:28:15;;;;;;;69.53;44.25;;;;;;;16.30;81.62;99476.59;4752367;30;20044;-60
2021/08/27 05:30:42;;;;;;;68.60;44.63;;;;;;;16.38;81.51;99477.09;4751717;30;20051;-62
2021/08/27 05:33:08;;;;;;;66.55;43.78;;;;;;;16.50;81.18;99482.91;4736566;30;20104;-60
2021/08/27 05:35:33;;;;;;;71.47;44.67;;;;;;;16.53;80.83;99472.50;4753051;30;20408;-60
2021/08/27 05:37:59;;;;;;;68.38;43.83;;;;;;;16.67;80.64;99488.72;4751650;30;20515;-66
2021/08/27 05:40:25;;;;;;;78.65;46.67;;;;;;;16.76;80.12;99480.97;4752525;30;20106;-64
2021/08/27 05:42:51;;;;;;;69.75;46.88;;;;;;;16.84;79.97;99480.38;4751886;30;20427;-61
2021/08/27 05:45:18;;;;;;;73.53;46.85;;;;;;;16.90;79.27;99483.84;4736931;30;20064;-64
2021/08/27 05:47:44;;;;;;;73.32;46.35;;;;;;;17.12;78.95;99491.47;4752694;30;20056;-60
2021/08/27 05:50:13;;;;;;;71.05;45.97;;;;;;;17.25;78.19;99491.66;4752416;30;20424;-63
2021/08/27 05:52:39;;;;;;;71.00;44.40;;;;;;;17.43;77.39;99494.72;4751177;30;20048;-62
2021/08/27 05:55:06;;;;;;;69.38;44.20;;;;;;;17.53;76.83;99493.84;4736451;30;20052;-64
2021/08/27 05:57:33;;;;;;;66.82;42.63;;;;;;;17.54;76.27;99501.63;4752486;30;20102;-63
2021/08/27 05:59:59;;;;;;;73.32;46.17;;;;;;;17.57;76.27;99502.94;4751157;30;20058;-61
2021/08/27 06:02:25;;;;;;;70.05;44.55;;;;;;;17.51;76.35;99510.22;4751531;30;20052;-62
2021/08/27 06:04:50;;;;;;;69.32;44.53;;;;;;;17.47;76.36;99501.94;4736743;30;20045;-63
2021/08/27 06:07:17;;;;;;;68.15;45.10;;;;;;;17.51;76.13;99512.91;4752190;30;20084;-60
2021/08/27 06:09:43;;;;;;;68.85;46.17;;;;;;;17.51;76.08;99512.09;4752222;30;20056;-62
2021/08/27 06:12:09;;;;;;;64.40;44.47;;;;;;;17.51;75.93;99512.09;4721663;30;20040;-62
2021/08/27 06:14:35;;;;;;;64.05;43.88;;;;;;;17.45;75.92;99524.75;4750791;30;20090;-63
2021/08/27 06:17:01;;;;;;;69.90;44.05;;;;;;;17.41;75.68;99521.81;4751019;30;20519;-63
2021/08/27 06:19:27;;;;;;;66.25;45.00;;;;;;;17.49;75.71;99512.38;4744935;30;20048;-63
2021/08/27 06:21:55;;;;;;;64.63;44.28;;;;;;;17.51;74.77;99518.25;4749552;30;20079;-63
2021/08/27 06:24:21;;;;;;;69.85;44.35;;;;;;;17.40;74.97;99522.88;4746441;30;20048;-62
2021/08/27 06:26:47;;;;;;;63.15;43.65;;;;;;;17.40;75.38;99519.41;4748190;30;20047;-64
2021/08/27 06:29:14;;;;;;;69.03;45.30;;;;;;;17.46;75.31;99518.28;4748972;30;20052;-63
2021/08/27 06:31:40;;;;;;;69.38;44.50;;;;;;;17.48;75.89;99521.50;4748903;30;20127;-63
2021/08/27 06:34:06;;;;;;;67.85;47.20;;;;;;;17.51;75.95;99520.94;4749830;30;20052;-64
2021/08/27 06:36:32;;;;;;;71.57;47.55;;;;;;;17.56;75.51;99520.09;4748751;30;20416;-61
2021/08/27 06:38:58;;;;;;;69.25;48.08;;;;;;;17.68;75.10;99521.34;4747761;30;20048;-63
2021/08/27 06:41:24;;;;;;;66.30;45.58;;;;;;;17.71;74.86;99526.13;4748507;30;20055;-63
2021/08/27 06:43:50;;;;;;;68.97;44.60;;;;;;;17.80;74.02;99528.25;4749493;30;20055;-63
2021/08/27 06:46:21;;;;;;;71.03;45.72;;;;;;;17.98;74.23;99521.38;4748509;30;20071;-62
2021/08/27 06:48:48;;;;;;;64.00;43.05;;;;;;;18.14;73.35;99526.31;4734193;30;20151;-61
2021/08/27 06:51:14;;;;;;;62.05;42.58;;;;;;;18.47;72.73;99525.69;4749729;30;20056;-62
2021/08/27 06:53:40;;;;;;;67.03;45.83;;;;;;;18.59;71.70;99526.09;4748302;30;20559;-64
2021/08/27 06:56:06;;;;;;;64.40;42.33;;;;;;;18.68;70.78;99526.25;4749322;30;20131;-61
2021/08/27 06:58:32;;;;;;;63.30;44.08;;;;;;;18.83;70.56;99528.78;4749065;30;20147;-61
2021/08/27 07:00:58;;;;;;;65.47;42.35;;;;;;;19.04;70.21;99534.69;4732701;30;20079;-62
2021/08/27 07:03:24;;;;;;;62.33;42.67;;;;;;;19.09;69.72;99531.13;4719128;30;20545;-62
2021/08/27 07:05:50;;;;;;;59.28;41.42;;;;;;;19.02;68.97;99536.84;4749635;30;20056;-63
2021/08/27 07:08:16;;;;;;;59.97;39.85;;;;;;;18.92;69.31;99531.63;4746775;30;20056;-63
2021/08/27 07:10:43;;;;;;;62.88;41.95;;;;;;;18.92;69.97;99535.13;4750337;30;20050;-62
2021/08/27 07:13:10;;;;;;;63.35;41.60;;;;;;;18.94;69.43;99543.69;4718455;30;20063;-64
2021/08/27 07:15:36;;;;;;;63.70;40.20;;;;;;;18.96;69.18;99536.13;4749916;30;20044;-62
2021/08/27 07:18:02;;;;;;;55.63;39.67;;;;;;;19.05;68.81;99536.28;4749344;30;20052;-62
2021/08/27 07:20:28;;;;;;;55.22;39.67;;;;;;;19.10;69.03;99535.41;4748714;30;20052;-63
2021/08/27 07:22:54;;;;;;;58.97;39.42;;;;;;;19.13;68.72;99541.00;4747101;30;20522;-62
2021/08/27 07:25:20;;;;;;;59.72;40.95;;;;;;;19.13;69.19;99537.53;4747246;30;20584;-63
2021/08/27 07:27:47;;;;;;;56.88;37.78;;;;;;;19.04;69.35;99538.16;4746852;30;20048;-62
2021/08/27 07:30:13;;;;;;;56.33;39.13;;;;;;;19.15;68.66;99530.78;4744867;30;20389;-62
2021/08/27 07:32:39;;;;;;;59.70;38.20;;;;;;;19.24;68.38;99530.91;4745987;30;20060;-63
2021/08/27 07:35:06;;;;;;;47.65;35.47;;;;;;;19.24;66.51;99537.09;4747763;30;20113;-64
2021/08/27 07:37:34;;;;;;;51.05;35.78;;;;;;;19.18;66.29;99540.16;4747148;30;20144;-61
2021/08/27 07:39:59;;;;;;;47.25;33.17;;;;;;;19.19;65.56;99533.66;4747524;30;20073;-64
2021/08/27 07:42:25;;;;;;;52.72;35.08;;;;;;;19.24;65.91;99533.59;4746099;30;20059;-63
2021/08/27 07:44:51;;;;;;;50.00;32.75;;;;;;;19.23;66.16;99543.53;4745757;30;20052;-64
2021/08/27 07:47:17;;;;;;;49.15;32.92;;;;;;;19.08;64.89;99537.59;4731327;30;20058;-63
2021/08/27 07:49:43;;;;;;;47.85;33.40;;;;;;;18.96;65.62;99543.38;4747569;30;20400;-64
2021/08/27 07:52:08;;;;;;;47.15;32.92;;;;;;;18.89;64.75;99551.81;4746833;30;20931;-65
2021/08/27 07:54:34;;;;;;;49.17;33.92;;;;;;;18.96;64.84;99552.25;4745457;30;20052;-63
2021/08/27 07:57:00;;;;;;;50.25;32.85;;;;;;;19.06;65.32;99556.69;4746207;30;20048;-64
2021/08/27 07:59:26;;;;;;;50.13;33.13;;;;;;;19.11;64.71;99545.06;4745822;30;20427;-63
2021/08/27 08:01:52;;;;;;;54.60;31.50;;;;;;;19.09;64.56;99548.06;4746702;30;20079;-63
2021/08/27 08:04:18;;;;;;;49.10;32.47;;;;;;;19.08;64.44;99548.34;4746216;30;20067;-65
2021/08/27 08:06:44;;;;;;;46.00;31.75;;;;;;;19.15;64.88;99538.00;4730528;30;20048;-61
2021/08/27 08:09:10;;;;;;;42.50;31.02;;;;;;;19.14;64.84;99547.97;4746962;30;20103;-63
2021/08/27 08:11:36;;;;;;;48.65;31.00;;;;;;;19.18;64.87;99564.34;4749094;30;20105;-63
2021/08/27 08:14:02;;;;;;;40.60;28.27;;;;;;;19.09;64.97;99566.88;4748117;30;20052;-62
2021/08/27 08:16:28;;;;;;;45.33;29.02;;;;;;;19.12;64.98;99547.47;4748624;30;20048;-63
2021/08/27 08:18:55;;;;;;;42.28;29.45;;;;;;;19.18;65.22;99553.59;4748200;30;20048;-63
2021/08/27 08:21:24;;;;;;;40.17;28.27;;;;;;;19.42;64.18;99558.88;4745901;30;20058;-63
2021/08/27 08:23:50;;;;;;;43.47;28.70;;;;;;;19.56;63.47;99562.44;4745713;30;20560;-63
2021/08/27 08:26:18;;;;;;;37.78;26.30;;;;;;;19.51;62.15;99559.81;4749714;30;20056;-63
2021/08/27 08:28:44;;;;;;;38.17;27.42;;;;;;;19.56;62.46;99559.75;4749002;30;20048;-62
2021/08/27 08:31:13;;;;;;;39.65;27.23;;;;;;;19.56;62.63;99556.22;4749027;30;20051;-63
2021/08/27 08:33:39;;;;;;;41.35;28.92;;;;;;;19.79;62.50;99557.25;4748484;30;20056;-64
2021/08/27 08:36:05;;;;;;;39.45;28.65;;;;;;;19.88;62.75;99563.53;4719231;30;20443;-63
2021/08/27 08:38:31;;;;;;;41.83;28.60;;;;;;;19.93;62.55;99564.25;4747668;30;20044;-65
2021/08/27 08:40:57;;;;;;;40.38;28.25;;;;;;;20.01;62.36;99562.81;4748167;30;20052;-66
2021/08/27 08:43:22;;;;;;;44.30;27.75;;;;;;;20.02;61.46;99556.31;4732695;30;20105;-62
2021/08/27 08:45:50;;;;;;;39.30;25.98;;;;;;;20.06;60.53;99560.03;4732648;30;20759;-64
2021/08/27 08:48:20;;;;;;;35.90;25.45;;;;;;;20.17;60.22;99555.25;4748463;30;20048;-63
2021/08/27 08:50:47;;;;;;;33.45;24.40;;;;;;;20.30;58.28;99553.69;4734539;30;20133;-64
2021/08/27 08:53:14;;;;;;;33.42;22.98;;;;;;;20.23;57.81;99535.22;4732051;30;20052;-62
2021/08/27 08:55:41;;;;;;;35.83;24.63;;;;;;;20.50;58.13;99541.72;4749337;30;20051;-63
2021/08/27 08:58:07;;;;;;;36.58;24.00;;;;;;;20.64;58.47;99547.94;4748375;30;20141;-64
2021/08/27 09:00:34;;;;;;;37.35;23.08;;;;;;;20.72;57.70;99547.22;4750119;30;20052;-63
2021/08/27 09:03:00;;;;;;;32.90;24.55;;;;;;;20.85;57.01;99541.03;4735018;30;20052;-63
2021/08/27 09:05:27;;;;;;;36.60;24.63;;;;;;;20.94;57.33;99541.13;4735000;30;20422;-62
2021/08/27 09:07:53;;;;;;;38.72;24.48;;;;;;;21.08;57.92;99533.78;4729466;30;20205;-64
2021/08/27 09:10:20;;;;;;;35.72;24.25;;;;;;;21.13;57.93;99542.88;4719444;30;20286;-62
2021/08/27 09:12:48;;;;;;;40.08;25.90;;;;;;;21.23;59.39;99548.03;4716639;30;20056;-62
2021/08/27 09:15:15;;;;;;;39.45;25.52;;;;;;;21.15;59.79;99543.34;4714038;30;20151;-63
2021/08/27 09:17:43;;;;;;;33.53;25.98;;;;;;;21.17;60.82;99539.25;4707787;30;20052;-63
2021/08/27 09:20:11;;;;;;;36.08;25.73;;;;;;;21.07;58.45;99536.81;4749579;30;20048;-62
2021/08/27 09:22:56;;;;;;;35.83;26.08;;;;;;;21.02;59.08;99535.00;4750366;30;20044;-63
2021/08/27 09:25:27;;;;;;;39.25;25.63;;;;;;;21.02;59.59;99543.09;4751162;30;20082;-63
2021/08/27 09:28:07;;;;;;;36.28;23.98;;;;;;;20.85;58.41;99534.84;4749498;30;20051;-63
2021/08/27 09:30:37;;;;;;;27.80;18.75;;;;;;;20.85;56.42;99551.81;4747784;30;20063;-63
2021/08/27 09:33:11;;;;;;;25.33;18.60;;;;;;;20.79;55.10;99549.50;4749080;30;20592;-63
2021/08/27 09:35:38;;;;;;;25.55;18.52;;;;;;;20.83;55.75;99545.94;4749675;30;20060;-62
2021/08/27 09:38:12;;;;;;;27.27;19.23;;;;;;;20.87;55.72;99538.03;4748292;30;20048;-64
2021/08/27 09:40:38;;;;;;;29.00;20.15;;;;;;;20.97;56.60;99539.69;4749991;30;20427;-64
2021/08/27 09:43:06;;;;;;;28.15;19.38;;;;;;;21.07;56.60;99537.59;4732679;30;20052;-64
2021/08/27 09:45:44;;;;;;;25.77;20.08;;;;;;;21.13;57.44;99538.28;4748402;30;20056;-65
2021/08/27 09:48:13;;;;;;;29.40;19.00;;;;;;;21.18;56.91;99537.34;4748631;30;20297;-64
2021/08/27 09:50:40;;;;;;;29.42;20.02;;;;;;;21.18;57.00;99535.47;4748163;30;20190;-64
2021/08/27 09:53:11;;;;;;;25.58;17.92;;;;;;;21.13;55.95;99538.28;4748847;30;20048;-62
2021/08/27 09:55:39;;;;;;;23.80;17.52;;;;;;;21.10;56.94;99541.59;4747080;30;20071;-63
2021/08/27 09:58:06;;;;;;;23.23;17.48;;;;;;;21.18;56.46;99537.34;4746564;30;20136;-63
2021/08/27 10:00:39;;;;;;;23.00;16.13;;;;;;;21.25;56.32;99530.47;4748963;30;20135;-63
2021/08/27 10:03:19;;;;;;;22.88;16.55;;;;;;;21.26;55.50;99526.66;4748855;30;20459;-64
2021/08/27 10:05:47;;;;;;;20.33;14.70;;;;;;;21.27;54.94;99533.66;4749255;30;20056;-65
2021/08/27 10:08:18;;;;;;;21.27;14.02;;;;;;;21.23;54.07;99529.94;4732650;30;20447;-65
2021/08/27 10:10:44;;;;;;;18.65;11.95;;;;;;;21.12;52.66;99536.69;4746354;30;20070;-64
2021/08/27 10:13:11;;;;;;;19.10;12.77;;;;;;;21.05;52.27;99547.09;4731610;30;20789;-64
2021/08/27 10:15:38;;;;;;;22.52;12.55;;;;;;;21.01;52.86;99535.31;4748347;30;20527;-63
2021/08/27 10:18:09;;;;;;;21.38;13.00;;;;;;;21.04;53.52;99534.72;4749615;30;20079;-64
2021/08/27 10:20:42;;;;;;;18.65;12.05;;;;;;;21.04;53.33;99527.44;4730859;30;20076;-63
2021/08/27 10:23:10;;;;;;;18.83;13.40;;;;;;;21.15;53.07;99529.88;4749464;30;20503;-64
2021/08/27 10:25:37;;;;;;;20.27;12.23;;;;;;;21.08;52.66;99514.13;4730826;30;20067;-64
2021/08/27 10:28:04;;;;;;;19.05;10.80;;;;;;;21.13;51.43;99532.88;4728870;30;20071;-64
2021/08/27 10:30:49;;;;;;;16.55;11.73;;;;;;;21.09;51.63;99537.31;4717628;30;20060;-65
2021/08/27 10:33:19;;;;;;;16.67;11.13;;;;;;;21.04;51.16;99524.72;4733448;30;20075;-64
2021/08/27 10:35:48;;;;;;;19.40;11.50;;;;;;;21.16;51.09;99526.88;4730282;30;20137;-65
2021/08/27 10:38:43;;;;;;;15.82;10.52;;;;;;;21.24;50.80;99539.66;4731129;30;20515;-63
2021/08/27 10:41:21;;;;;;;15.63;10.13;;;;;;;21.27;50.85;99530.16;4729415;30;20490;-64
2021/08/27 10:44:03;;;;;;;15.25;9.88;;;;;;;21.30;50.10;99532.25;4729710;30;20455;-65
2021/08/27 10:46:46;;;;;;;14.98;8.98;;;;;;;21.24;49.01;99534.25;4732084;30;20036;-63
2021/08/27 10:49:17;;;;;;;15.27;9.30;;;;;;;21.24;48.65;99536.97;4732685;30;20056;-64
2021/08/27 10:51:44;;;;;;;12.93;8.65;;;;;;;21.26;47.53;99534.72;4730661;30;20044;-65
2021/08/27 10:54:12;;;;;;;14.80;8.55;;;;;;;21.27;47.40;99525.56;4701413;30;20585;-64
2021/08/27 10:56:50;;;;;;;14.65;8.88;;;;;;;21.28;46.78;99534.44;4732683;30;20051;-64
2021/08/27 10:59:18;;;;;;;13.35;8.20;;;;;;;21.27;46.55;99527.47;4731245;30;20411;-64
2021/08/27 11:01:46;;;;;;;16.02;8.52;;;;;;;21.35;46.96;99529.41;4730566;30;20056;-64
2021/08/27 11:04:24;;;;;;;14.32;8.90;;;;;;;21.40;46.48;99526.63;4731494;30;20099;-63
2021/08/27 11:06:58;;;;;;;15.77;9.35;;;;;;;21.46;46.65;99524.63;4731695;30;20059;-66
2021/08/27 11:09:29;;;;;;;13.93;8.55;;;;;;;21.46;46.58;99528.09;4730827;30;20489;-64
2021/08/27 11:12:24;;;;;;;15.07;8.27;;;;;;;21.47;46.06;99529.72;4731274;30;20150;-64
2021/08/27 11:14:54;;;;;;;14.05;8.40;;;;;;;21.50;45.96;99537.19;4748891;30;20106;-63
2021/08/27 11:17:20;;;;;;;13.23;8.52;;;;;;;21.47;45.02;99527.03;4717513;30;20048;-64
2021/08/27 11:19:59;;;;;;;13.25;7.53;;;;;;;21.56;45.17;99529.78;4746000;30;20052;-64
2021/08/27 11:22:32;;;;;;;11.73;7.78;;;;;;;21.61;44.63;99523.44;4747685;30;20052;-62